sensor_id;sensor_type;location;lat;lon;timestamp;P1;durP1;ratioP1;P2;durP2;ratioP2
37203;SDS011;23098;48.054;10.636;2022-08-19T00:00:23;18.60;;;12.77;;
37203;SDS011;23098;48.054;10.636;2022-08-19T00:02:49;21.00;;;13.50;;
37203;SDS011;23098;48.054;10.636;2022-08-19T00:05:14;20.02;;;13.82;;
37203;SDS011;23098;48.054;10.636;2022-08-19T00:07:41;19.75;;;13.35;;
37203;SDS011;23098;48.054;10.636;2022-08-19T00:10:08;17.80;;;13.18;;
37203;SDS011;23098;48.054;10.636;2022-08-19T00:12:37;16.48;;;12.15;;
37203;SDS011;23098;48.054;10.636;2022-08-19T00:15:04;16.75;;;12.27;;
37203;SDS011;23098;48.054;10.636;2022-08-19T01:03:19;17.33;;;11.15;;
37203;SDS011;23098;48.054;10.636;2022-08-19T01:44:31;22.40;;;14.45;;
37203;SDS011;23098;48.054;10.636;2022-08-19T01:46:56;25.58;;;14.68;;
37203;SDS011;23098;48.054;10.636;2022-08-19T01:49:23;22.63;;;13.63;;
37203;SDS011;23098;48.054;10.636;2022-08-19T01:51:50;22.73;;;13.77;;
37203;SDS011;23098;48.054;10.636;2022-08-19T01:54:17;23.45;;;14.63;;
37203;SDS011;23098;48.054;10.636;2022-08-19T01:56:43;23.90;;;14.23;;
37203;SDS011;23098;48.054;10.636;2022-08-19T01:59:14;23.92;;;14.60;;
37203;SDS011;23098;48.054;10.636;2022-08-19T02:01:43;22.42;;;14.35;;
37203;SDS011;23098;48.054;10.636;2022-08-19T02:04:09;23.70;;;13.32;;
37203;SDS011;23098;48.054;10.636;2022-08-19T02:06:35;22.10;;;13.23;;
37203;SDS011;23098;48.054;10.636;2022-08-19T04:16:14;27.23;;;17.52;;
37203;SDS011;23098;48.054;10.636;2022-08-19T04:18:39;29.30;;;18.48;;
37203;SDS011;23098;48.054;10.636;2022-08-19T04:21:07;29.15;;;18.88;;
37203;SDS011;23098;48.054;10.636;2022-08-19T04:23:34;29.83;;;18.77;;
37203;SDS011;23098;48.054;10.636;2022-08-19T04:26:03;27.85;;;18.23;;
37203;SDS011;23098;48.054;10.636;2022-08-19T04:28:28;30.25;;;19.75;;
37203;SDS011;23098;48.054;10.636;2022-08-19T04:30:54;30.25;;;20.13;;
37203;SDS011;23098;48.054;10.636;2022-08-19T04:33:21;31.17;;;20.35;;
37203;SDS011;23098;48.054;10.636;2022-08-19T04:35:49;27.70;;;18.15;;
37203;SDS011;23098;48.054;10.636;2022-08-19T04:38:19;29.35;;;19.02;;
37203;SDS011;23098;48.054;10.636;2022-08-19T04:40:51;32.00;;;19.20;;
37203;SDS011;23098;48.054;10.636;2022-08-19T04:43:36;27.85;;;18.65;;
37203;SDS011;23098;48.054;10.636;2022-08-19T04:46:04;28.27;;;19.05;;
37203;SDS011;23098;48.054;10.636;2022-08-19T04:48:35;26.42;;;17.90;;
37203;SDS011;23098;48.054;10.636;2022-08-19T04:51:05;27.15;;;18.63;;
37203;SDS011;23098;48.054;10.636;2022-08-19T04:53:33;27.60;;;19.00;;
37203;SDS011;23098;48.054;10.636;2022-08-19T04:56:03;28.60;;;19.27;;
37203;SDS011;23098;48.054;10.636;2022-08-19T04:58:32;30.15;;;18.88;;
37203;SDS011;23098;48.054;10.636;2022-08-19T05:00:58;34.20;;;21.13;;
37203;SDS011;23098;48.054;10.636;2022-08-19T05:03:24;31.60;;;19.90;;
37203;SDS011;23098;48.054;10.636;2022-08-19T05:05:51;34.15;;;21.65;;
37203;SDS011;23098;48.054;10.636;2022-08-19T05:08:18;33.47;;;20.83;;
37203;SDS011;23098;48.054;10.636;2022-08-19T05:10:47;34.75;;;22.02;;
37203;SDS011;23098;48.054;10.636;2022-08-19T05:13:15;40.03;;;23.52;;
37203;SDS011;23098;48.054;10.636;2022-08-19T05:15:43;38.10;;;22.80;;
37203;SDS011;23098;48.054;10.636;2022-08-19T05:18:09;44.03;;;25.08;;
37203;SDS011;23098;48.054;10.636;2022-08-19T05:20:54;38.90;;;24.75;;
37203;SDS011;23098;48.054;10.636;2022-08-19T05:23:38;41.33;;;24.85;;
37203;SDS011;23098;48.054;10.636;2022-08-19T05:26:06;42.25;;;25.27;;
37203;SDS011;23098;48.054;10.636;2022-08-19T05:28:31;38.70;;;25.38;;
37203;SDS011;23098;48.054;10.636;2022-08-19T05:30:57;35.42;;;24.02;;
37203;SDS011;23098;48.054;10.636;2022-08-19T05:33:23;35.25;;;24.08;;
37203;SDS011;23098;48.054;10.636;2022-08-19T05:35:49;39.17;;;24.70;;
37203;SDS011;23098;48.054;10.636;2022-08-19T05:38:16;38.25;;;25.25;;
37203;SDS011;23098;48.054;10.636;2022-08-19T05:40:43;43.40;;;25.77;;
37203;SDS011;23098;48.054;10.636;2022-08-19T05:43:12;43.08;;;26.90;;
37203;SDS011;23098;48.054;10.636;2022-08-19T05:45:41;40.40;;;26.15;;
37203;SDS011;23098;48.054;10.636;2022-08-19T05:48:07;43.10;;;27.38;;
37203;SDS011;23098;48.054;10.636;2022-08-19T05:50:36;42.88;;;25.83;;
37203;SDS011;23098;48.054;10.636;2022-08-19T05:53:04;42.78;;;27.23;;
37203;SDS011;23098;48.054;10.636;2022-08-19T05:55:31;41.72;;;26.25;;
37203;SDS011;23098;48.054;10.636;2022-08-19T05:57:58;47.40;;;28.05;;
37203;SDS011;23098;48.054;10.636;2022-08-19T06:00:26;49.35;;;28.70;;
37203;SDS011;23098;48.054;10.636;2022-08-19T06:02:55;44.13;;;26.52;;
37203;SDS011;23098;48.054;10.636;2022-08-19T06:05:32;50.05;;;28.20;;
37203;SDS011;23098;48.054;10.636;2022-08-19T06:07:59;52.00;;;29.35;;
37203;SDS011;23098;48.054;10.636;2022-08-19T06:10:25;52.33;;;29.88;;
37203;SDS011;23098;48.054;10.636;2022-08-19T06:12:51;58.10;;;30.40;;
37203;SDS011;23098;48.054;10.636;2022-08-19T06:15:17;53.13;;;28.52;;
37203;SDS011;23098;48.054;10.636;2022-08-19T06:17:43;54.22;;;30.63;;
37203;SDS011;23098;48.054;10.636;2022-08-19T06:20:13;56.45;;;30.17;;
37203;SDS011;23098;48.054;10.636;2022-08-19T06:22:43;53.70;;;30.43;;
37203;SDS011;23098;48.054;10.636;2022-08-19T06:25:11;56.40;;;30.27;;
37203;SDS011;23098;48.054;10.636;2022-08-19T06:27:39;57.35;;;31.55;;
37203;SDS011;23098;48.054;10.636;2022-08-19T06:30:05;56.40;;;31.17;;
37203;SDS011;23098;48.054;10.636;2022-08-19T06:32:32;61.78;;;31.83;;
37203;SDS011;23098;48.054;10.636;2022-08-19T06:34:57;61.65;;;32.25;;
37203;SDS011;23098;48.054;10.636;2022-08-19T06:37:23;65.45;;;32.47;;
37203;SDS011;23098;48.054;10.636;2022-08-19T06:39:49;63.78;;;31.88;;
37203;SDS011;23098;48.054;10.636;2022-08-19T06:42:15;64.53;;;32.53;;
37203;SDS011;23098;48.054;10.636;2022-08-19T06:44:43;66.45;;;33.15;;
37203;SDS011;23098;48.054;10.636;2022-08-19T06:47:12;71.75;;;33.63;;
37203;SDS011;23098;48.054;10.636;2022-08-19T06:49:39;61.88;;;32.42;;
37203;SDS011;23098;48.054;10.636;2022-08-19T06:52:05;65.35;;;33.08;;
37203;SDS011;23098;48.054;10.636;2022-08-19T06:54:32;63.83;;;33.05;;
37203;SDS011;23098;48.054;10.636;2022-08-19T06:56:58;64.93;;;32.70;;
37203;SDS011;23098;48.054;10.636;2022-08-19T06:59:28;63.15;;;32.20;;
37203;SDS011;23098;48.054;10.636;2022-08-19T07:01:58;61.53;;;31.25;;
37203;SDS011;23098;48.054;10.636;2022-08-19T07:04:26;54.72;;;30.40;;
37203;SDS011;23098;48.054;10.636;2022-08-19T07:09:24;59.00;;;28.83;;
37203;SDS011;23098;48.054;10.636;2022-08-19T07:11:50;59.13;;;29.20;;
37203;SDS011;23098;48.054;10.636;2022-08-19T07:14:19;43.58;;;25.23;;
37203;SDS011;23098;48.054;10.636;2022-08-19T07:16:51;36.90;;;23.08;;
37203;SDS011;23098;48.054;10.636;2022-08-19T07:19:19;35.67;;;22.23;;
37203;SDS011;23098;48.054;10.636;2022-08-19T07:21:46;37.70;;;22.92;;
37203;SDS011;23098;48.054;10.636;2022-08-19T07:24:13;39.65;;;23.65;;
37203;SDS011;23098;48.054;10.636;2022-08-19T07:26:41;42.80;;;24.58;;
37203;SDS011;23098;48.054;10.636;2022-08-19T07:29:08;42.90;;;25.35;;
37203;SDS011;23098;48.054;10.636;2022-08-19T07:31:34;42.83;;;24.52;;
37203;SDS011;23098;48.054;10.636;2022-08-19T07:34:02;42.42;;;24.83;;
37203;SDS011;23098;48.054;10.636;2022-08-19T07:36:32;50.22;;;27.95;;
37203;SDS011;23098;48.054;10.636;2022-08-19T07:39:00;48.03;;;27.13;;
37203;SDS011;23098;48.054;10.636;2022-08-19T07:41:29;54.13;;;27.33;;
37203;SDS011;23098;48.054;10.636;2022-08-19T07:43:55;50.80;;;27.17;;
37203;SDS011;23098;48.054;10.636;2022-08-19T07:46:21;49.80;;;26.15;;
37203;SDS011;23098;48.054;10.636;2022-08-19T07:48:48;50.67;;;26.63;;
37203;SDS011;23098;48.054;10.636;2022-08-19T07:51:16;53.70;;;27.75;;
37203;SDS011;23098;48.054;10.636;2022-08-19T07:53:43;52.75;;;27.83;;
37203;SDS011;23098;48.054;10.636;2022-08-19T07:56:10;58.53;;;28.60;;
37203;SDS011;23098;48.054;10.636;2022-08-19T07:58:39;58.85;;;29.30;;
37203;SDS011;23098;48.054;10.636;2022-08-19T08:01:07;52.67;;;27.52;;
37203;SDS011;23098;48.054;10.636;2022-08-19T08:03:36;56.28;;;28.75;;
37203;SDS011;23098;48.054;10.636;2022-08-19T08:06:20;56.92;;;28.33;;
37203;SDS011;23098;48.054;10.636;2022-08-19T08:09:06;57.80;;;28.88;;
37203;SDS011;23098;48.054;10.636;2022-08-19T08:11:52;56.63;;;28.75;;
37203;SDS011;23098;48.054;10.636;2022-08-19T08:14:27;51.38;;;27.20;;
37203;SDS011;23098;48.054;10.636;2022-08-19T08:16:57;46.00;;;26.10;;
37203;SDS011;23098;48.054;10.636;2022-08-19T08:19:24;51.55;;;25.55;;
37203;SDS011;23098;48.054;10.636;2022-08-19T08:22:31;49.05;;;25.55;;
37203;SDS011;23098;48.054;10.636;2022-08-19T08:25:17;45.45;;;24.13;;
37203;SDS011;23098;48.054;10.636;2022-08-19T08:27:47;45.60;;;23.92;;
37203;SDS011;23098;48.054;10.636;2022-08-19T08:30:18;48.65;;;24.83;;
37203;SDS011;23098;48.054;10.636;2022-08-19T08:32:47;40.45;;;22.88;;
37203;SDS011;23098;48.054;10.636;2022-08-19T08:35:14;37.70;;;21.42;;
37203;SDS011;23098;48.054;10.636;2022-08-19T08:37:42;35.67;;;19.33;;
37203;SDS011;23098;48.054;10.636;2022-08-19T08:40:29;29.75;;;18.00;;
37203;SDS011;23098;48.054;10.636;2022-08-19T08:43:09;27.38;;;16.98;;
37203;SDS011;23098;48.054;10.636;2022-08-19T08:45:38;25.58;;;16.33;;
37203;SDS011;23098;48.054;10.636;2022-08-19T08:48:18;26.38;;;16.15;;
37203;SDS011;23098;48.054;10.636;2022-08-19T08:50:52;25.05;;;15.43;;
37203;SDS011;23098;48.054;10.636;2022-08-19T08:53:19;26.17;;;14.63;;
37203;SDS011;23098;48.054;10.636;2022-08-19T08:55:46;23.85;;;14.82;;
37203;SDS011;23098;48.054;10.636;2022-08-19T08:58:36;20.83;;;14.13;;
37203;SDS011;23098;48.054;10.636;2022-08-19T09:01:18;25.95;;;15.05;;
37203;SDS011;23098;48.054;10.636;2022-08-19T09:03:44;24.40;;;14.98;;
37203;SDS011;23098;48.054;10.636;2022-08-19T09:06:28;29.50;;;16.45;;
37203;SDS011;23098;48.054;10.636;2022-08-19T09:17:16;44.95;;;24.00;;
37203;SDS011;23098;48.054;10.636;2022-08-19T09:19:49;46.78;;;25.05;;
37203;SDS011;23098;48.054;10.636;2022-08-19T09:22:18;48.95;;;25.00;;
37203;SDS011;23098;48.054;10.636;2022-08-19T09:24:46;45.10;;;23.88;;
37203;SDS011;23098;48.054;10.636;2022-08-19T09:27:17;50.25;;;25.33;;
37203;SDS011;23098;48.054;10.636;2022-08-19T09:29:43;55.40;;;25.45;;
37203;SDS011;23098;48.054;10.636;2022-08-19T09:32:08;49.72;;;25.00;;
37203;SDS011;23098;48.054;10.636;2022-08-19T09:34:34;50.22;;;24.25;;
37203;SDS011;23098;48.054;10.636;2022-08-19T09:36:59;48.75;;;25.73;;
37203;SDS011;23098;48.054;10.636;2022-08-19T09:39:25;55.65;;;26.30;;
37203;SDS011;23098;48.054;10.636;2022-08-19T09:41:51;59.80;;;25.00;;
37203;SDS011;23098;48.054;10.636;2022-08-19T09:44:18;57.97;;;25.73;;
37203;SDS011;23098;48.054;10.636;2022-08-19T09:46:45;56.30;;;25.05;;
37203;SDS011;23098;48.054;10.636;2022-08-19T09:49:14;54.80;;;25.27;;
37203;SDS011;23098;48.054;10.636;2022-08-19T09:51:42;60.35;;;25.80;;
37203;SDS011;23098;48.054;10.636;2022-08-19T09:54:07;46.53;;;22.58;;
37203;SDS011;23098;48.054;10.636;2022-08-19T09:56:33;51.38;;;22.17;;
37203;SDS011;23098;48.054;10.636;2022-08-19T09:58:59;40.75;;;21.35;;
37203;SDS011;23098;48.054;10.636;2022-08-19T10:01:27;45.55;;;21.00;;
37203;SDS011;23098;48.054;10.636;2022-08-19T10:03:55;43.30;;;21.48;;
37203;SDS011;23098;48.054;10.636;2022-08-19T10:06:23;42.42;;;20.48;;
37203;SDS011;23098;48.054;10.636;2022-08-19T10:08:51;50.25;;;21.02;;
37203;SDS011;23098;48.054;10.636;2022-08-19T10:11:18;64.55;;;20.73;;
37203;SDS011;23098;48.054;10.636;2022-08-19T10:13:45;46.53;;;18.60;;
37203;SDS011;23098;48.054;10.636;2022-08-19T10:16:12;40.10;;;18.10;;
37203;SDS011;23098;48.054;10.636;2022-08-19T10:18:41;34.72;;;16.67;;
37203;SDS011;23098;48.054;10.636;2022-08-19T10:21:12;33.22;;;17.52;;
37203;SDS011;23098;48.054;10.636;2022-08-19T10:23:41;29.35;;;15.50;;
37203;SDS011;23098;48.054;10.636;2022-08-19T10:26:15;28.90;;;15.38;;
37203;SDS011;23098;48.054;10.636;2022-08-19T10:28:44;31.98;;;14.65;;
37203;SDS011;23098;48.054;10.636;2022-08-19T10:31:11;24.10;;;12.85;;
37203;SDS011;23098;48.054;10.636;2022-08-19T10:33:42;19.73;;;11.60;;
37203;SDS011;23098;48.054;10.636;2022-08-19T10:36:10;15.40;;;9.40;;
37203;SDS011;23098;48.054;10.636;2022-08-19T10:38:41;15.25;;;9.00;;
37203;SDS011;23098;48.054;10.636;2022-08-19T10:41:12;16.20;;;9.48;;
37203;SDS011;23098;48.054;10.636;2022-08-19T10:43:40;12.43;;;8.00;;
37203;SDS011;23098;48.054;10.636;2022-08-19T10:46:10;11.38;;;7.78;;
37203;SDS011;23098;48.054;10.636;2022-08-19T10:48:38;13.88;;;8.02;;
37203;SDS011;23098;48.054;10.636;2022-08-19T10:51:04;12.55;;;6.68;;
37203;SDS011;23098;48.054;10.636;2022-08-19T10:53:48;14.20;;;7.32;;
37203;SDS011;23098;48.054;10.636;2022-08-19T10:56:14;11.82;;;6.50;;
37203;SDS011;23098;48.054;10.636;2022-08-19T10:58:58;11.65;;;7.00;;
37203;SDS011;23098;48.054;10.636;2022-08-19T11:01:25;12.38;;;7.40;;
37203;SDS011;23098;48.054;10.636;2022-08-19T11:03:51;14.27;;;7.57;;
37203;SDS011;23098;48.054;10.636;2022-08-19T11:06:17;10.68;;;6.78;;
37203;SDS011;23098;48.054;10.636;2022-08-19T11:08:44;10.75;;;7.10;;
37203;SDS011;23098;48.054;10.636;2022-08-19T11:11:10;13.65;;;8.35;;
37203;SDS011;23098;48.054;10.636;2022-08-19T11:13:38;15.63;;;8.05;;
37203;SDS011;23098;48.054;10.636;2022-08-19T11:16:06;20.85;;;9.35;;
37203;SDS011;23098;48.054;10.636;2022-08-19T11:18:35;17.98;;;9.73;;
37203;SDS011;23098;48.054;10.636;2022-08-19T11:21:15;20.60;;;10.05;;
37203;SDS011;23098;48.054;10.636;2022-08-19T11:23:50;20.48;;;10.38;;
37203;SDS011;23098;48.054;10.636;2022-08-19T11:26:18;19.33;;;10.85;;
37203;SDS011;23098;48.054;10.636;2022-08-19T11:28:45;21.70;;;10.32;;
37203;SDS011;23098;48.054;10.636;2022-08-19T11:31:11;21.75;;;10.43;;
37203;SDS011;23098;48.054;10.636;2022-08-19T11:36:08;23.48;;;11.82;;
37203;SDS011;23098;48.054;10.636;2022-08-19T11:38:34;27.15;;;12.43;;
37203;SDS011;23098;48.054;10.636;2022-08-19T11:41:02;29.67;;;13.38;;
37203;SDS011;23098;48.054;10.636;2022-08-19T11:43:30;36.92;;;15.55;;
37203;SDS011;23098;48.054;10.636;2022-08-19T11:45:55;36.25;;;16.55;;
37203;SDS011;23098;48.054;10.636;2022-08-19T11:48:22;33.25;;;16.27;;
37203;SDS011;23098;48.054;10.636;2022-08-19T11:50:48;34.08;;;16.60;;
37203;SDS011;23098;48.054;10.636;2022-08-19T11:53:15;41.20;;;17.58;;
37203;SDS011;23098;48.054;10.636;2022-08-19T11:55:41;43.65;;;19.15;;
37203;SDS011;23098;48.054;10.636;2022-08-19T11:58:07;46.33;;;20.40;;
37203;SDS011;23098;48.054;10.636;2022-08-19T12:00:34;44.50;;;19.17;;
37203;SDS011;23098;48.054;10.636;2022-08-19T12:03:01;43.47;;;19.67;;
37203;SDS011;23098;48.054;10.636;2022-08-19T12:05:27;43.47;;;19.50;;
37203;SDS011;23098;48.054;10.636;2022-08-19T12:07:52;43.42;;;18.60;;
37203;SDS011;23098;48.054;10.636;2022-08-19T12:10:19;40.03;;;18.42;;
37203;SDS011;23098;48.054;10.636;2022-08-19T12:12:45;39.55;;;18.30;;
37203;SDS011;23098;48.054;10.636;2022-08-19T12:15:11;39.10;;;18.63;;
37203;SDS011;23098;48.054;10.636;2022-08-19T12:17:39;39.72;;;16.90;;
37203;SDS011;23098;48.054;10.636;2022-08-19T12:20:06;34.75;;;17.02;;
37203;SDS011;23098;48.054;10.636;2022-08-19T12:22:34;36.88;;;18.15;;
37203;SDS011;23098;48.054;10.636;2022-08-19T12:25:01;33.95;;;17.73;;
37203;SDS011;23098;48.054;10.636;2022-08-19T12:27:27;34.83;;;18.73;;
37203;SDS011;23098;48.054;10.636;2022-08-19T12:29:53;29.83;;;16.70;;
37203;SDS011;23098;48.054;10.636;2022-08-19T12:32:18;27.70;;;15.95;;
37203;SDS011;23098;48.054;10.636;2022-08-19T12:34:44;24.63;;;14.50;;
37203;SDS011;23098;48.054;10.636;2022-08-19T12:37:14;26.02;;;14.10;;
37203;SDS011;23098;48.054;10.636;2022-08-19T12:39:43;24.77;;;13.70;;
37203;SDS011;23098;48.054;10.636;2022-08-19T12:42:09;27.05;;;14.70;;
37203;SDS011;23098;48.054;10.636;2022-08-19T12:44:37;23.23;;;13.35;;
37203;SDS011;23098;48.054;10.636;2022-08-19T12:47:04;22.50;;;12.68;;
37203;SDS011;23098;48.054;10.636;2022-08-19T12:49:31;19.92;;;11.35;;
37203;SDS011;23098;48.054;10.636;2022-08-19T12:51:59;15.20;;;9.85;;
37203;SDS011;23098;48.054;10.636;2022-08-19T12:54:32;20.25;;;11.70;;
37203;SDS011;23098;48.054;10.636;2022-08-19T12:56:58;17.73;;;11.20;;
37203;SDS011;23098;48.054;10.636;2022-08-19T12:59:24;18.45;;;11.07;;
37203;SDS011;23098;48.054;10.636;2022-08-19T13:01:50;19.25;;;10.20;;
37203;SDS011;23098;48.054;10.636;2022-08-19T13:04:16;23.75;;;10.68;;
37203;SDS011;23098;48.054;10.636;2022-08-19T13:06:42;14.32;;;9.32;;
37203;SDS011;23098;48.054;10.636;2022-08-19T13:09:08;13.63;;;8.68;;
37203;SDS011;23098;48.054;10.636;2022-08-19T13:11:34;12.43;;;8.05;;
37203;SDS011;23098;48.054;10.636;2022-08-19T13:14:00;13.95;;;7.88;;
37203;SDS011;23098;48.054;10.636;2022-08-19T13:16:27;13.40;;;8.43;;
37203;SDS011;23098;48.054;10.636;2022-08-19T13:18:54;12.35;;;7.57;;
37203;SDS011;23098;48.054;10.636;2022-08-19T13:21:22;13.20;;;7.47;;
37203;SDS011;23098;48.054;10.636;2022-08-19T13:26:17;9.40;;;5.65;;
37203;SDS011;23098;48.054;10.636;2022-08-19T13:28:44;5.20;;;4.47;;
37203;SDS011;23098;48.054;10.636;2022-08-19T13:31:30;4.85;;;3.95;;
37203;SDS011;23098;48.054;10.636;2022-08-19T13:34:17;3.20;;;2.90;;
37203;SDS011;23098;48.054;10.636;2022-08-19T13:36:44;3.63;;;3.00;;
37203;SDS011;23098;48.054;10.636;2022-08-19T13:39:10;5.20;;;4.43;;
37203;SDS011;23098;48.054;10.636;2022-08-19T13:41:37;5.30;;;4.18;;
37203;SDS011;23098;48.054;10.636;2022-08-19T13:44:12;6.25;;;3.08;;
37203;SDS011;23098;48.054;10.636;2022-08-19T13:46:38;3.83;;;2.58;;
37203;SDS011;23098;48.054;10.636;2022-08-19T13:49:04;2.88;;;2.58;;
37203;SDS011;23098;48.054;10.636;2022-08-19T13:51:29;4.50;;;2.55;;
37203;SDS011;23098;48.054;10.636;2022-08-19T13:53:55;3.00;;;2.70;;
37203;SDS011;23098;48.054;10.636;2022-08-19T13:56:21;2.70;;;2.28;;
37203;SDS011;23098;48.054;10.636;2022-08-19T13:58:47;2.22;;;1.92;;
37203;SDS011;23098;48.054;10.636;2022-08-19T14:01:17;2.25;;;2.05;;
37203;SDS011;23098;48.054;10.636;2022-08-19T14:03:44;3.70;;;2.25;;
37203;SDS011;23098;48.054;10.636;2022-08-19T14:06:10;2.67;;;2.17;;
37203;SDS011;23098;48.054;10.636;2022-08-19T14:08:35;1.50;;;1.40;;
37203;SDS011;23098;48.054;10.636;2022-08-19T14:11:04;1.85;;;1.65;;
37203;SDS011;23098;48.054;10.636;2022-08-19T14:13:33;3.55;;;2.05;;
37203;SDS011;23098;48.054;10.636;2022-08-19T14:15:59;2.22;;;2.00;;
37203;SDS011;23098;48.054;10.636;2022-08-19T14:18:24;2.80;;;2.10;;
37203;SDS011;23098;48.054;10.636;2022-08-19T14:20:50;3.22;;;2.15;;
37203;SDS011;23098;48.054;10.636;2022-08-19T14:23:16;2.72;;;2.25;;
37203;SDS011;23098;48.054;10.636;2022-08-19T14:25:42;2.42;;;2.15;;
37203;SDS011;23098;48.054;10.636;2022-08-19T14:28:09;2.50;;;2.00;;
37203;SDS011;23098;48.054;10.636;2022-08-19T14:30:35;2.13;;;1.70;;
37203;SDS011;23098;48.054;10.636;2022-08-19T14:33:03;2.22;;;1.75;;
37203;SDS011;23098;48.054;10.636;2022-08-19T14:35:30;3.45;;;1.77;;
37203;SDS011;23098;48.054;10.636;2022-08-19T14:37:59;2.28;;;2.08;;
37203;SDS011;23098;48.054;10.636;2022-08-19T14:40:26;2.30;;;2.10;;
37203;SDS011;23098;48.054;10.636;2022-08-19T14:42:58;2.65;;;2.08;;
37203;SDS011;23098;48.054;10.636;2022-08-19T14:45:28;3.03;;;2.17;;
37203;SDS011;23098;48.054;10.636;2022-08-19T14:47:55;1.95;;;1.77;;
37203;SDS011;23098;48.054;10.636;2022-08-19T14:50:21;2.13;;;1.90;;
37203;SDS011;23098;48.054;10.636;2022-08-19T14:52:47;2.10;;;1.90;;
37203;SDS011;23098;48.054;10.636;2022-08-19T14:55:14;1.80;;;1.70;;
37203;SDS011;23098;48.054;10.636;2022-08-19T14:57:41;3.03;;;2.10;;
37203;SDS011;23098;48.054;10.636;2022-08-19T15:00:07;2.97;;;1.92;;
37203;SDS011;23098;48.054;10.636;2022-08-19T15:02:37;2.05;;;1.63;;
37203;SDS011;23098;48.054;10.636;2022-08-19T15:05:03;1.60;;;1.50;;
37203;SDS011;23098;48.054;10.636;2022-08-19T15:07:29;1.63;;;1.52;;
37203;SDS011;23098;48.054;10.636;2022-08-19T15:09:55;1.58;;;1.48;;
37203;SDS011;23098;48.054;10.636;2022-08-19T15:12:21;1.58;;;1.33;;
37203;SDS011;23098;48.054;10.636;2022-08-19T15:14:47;1.60;;;1.50;;
37203;SDS011;23098;48.054;10.636;2022-08-19T15:17:15;2.00;;;1.70;;
37203;SDS011;23098;48.054;10.636;2022-08-19T15:19:42;3.28;;;1.80;;
37203;SDS011;23098;48.054;10.636;2022-08-19T15:22:17;2.00;;;1.80;;
37203;SDS011;23098;48.054;10.636;2022-08-19T15:24:42;2.13;;;1.80;;
37203;SDS011;23098;48.054;10.636;2022-08-19T15:27:11;2.78;;;1.95;;
37203;SDS011;23098;48.054;10.636;2022-08-19T15:29:37;3.08;;;2.20;;
37203;SDS011;23098;48.054;10.636;2022-08-19T15:32:03;2.45;;;2.25;;
37203;SDS011;23098;48.054;10.636;2022-08-19T15:34:31;2.78;;;2.42;;
37203;SDS011;23098;48.054;10.636;2022-08-19T15:36:57;3.55;;;2.88;;
37203;SDS011;23098;48.054;10.636;2022-08-19T15:39:24;3.35;;;3.05;;
37203;SDS011;23098;48.054;10.636;2022-08-19T15:41:50;4.30;;;3.30;;
37203;SDS011;23098;48.054;10.636;2022-08-19T15:44:16;3.50;;;3.20;;
37203;SDS011;23098;48.054;10.636;2022-08-19T15:46:44;3.45;;;2.97;;
37203;SDS011;23098;48.054;10.636;2022-08-19T15:49:13;3.95;;;3.55;;
37203;SDS011;23098;48.054;10.636;2022-08-19T15:51:41;4.25;;;3.55;;
37203;SDS011;23098;48.054;10.636;2022-08-19T15:54:14;5.00;;;3.88;;
37203;SDS011;23098;48.054;10.636;2022-08-19T15:56:41;4.88;;;3.67;;
37203;SDS011;23098;48.054;10.636;2022-08-19T15:59:25;5.22;;;3.50;;
37203;SDS011;23098;48.054;10.636;2022-08-19T16:02:10;6.03;;;3.75;;
37203;SDS011;23098;48.054;10.636;2022-08-19T16:04:55;4.55;;;3.60;;
37203;SDS011;23098;48.054;10.636;2022-08-19T16:07:38;4.47;;;3.92;;
37203;SDS011;23098;48.054;10.636;2022-08-19T16:10:04;3.85;;;3.28;;
37203;SDS011;23098;48.054;10.636;2022-08-19T16:12:31;3.92;;;3.22;;
37203;SDS011;23098;48.054;10.636;2022-08-19T16:14:57;4.75;;;4.20;;
37203;SDS011;23098;48.054;10.636;2022-08-19T16:17:23;6.90;;;6.20;;
37203;SDS011;23098;48.054;10.636;2022-08-19T16:19:49;8.85;;;6.78;;
37203;SDS011;23098;48.054;10.636;2022-08-19T16:22:15;7.55;;;6.45;;
37203;SDS011;23098;48.054;10.636;2022-08-19T16:24:41;10.18;;;6.90;;
37203;SDS011;23098;48.054;10.636;2022-08-19T16:27:06;8.32;;;7.03;;
37203;SDS011;23098;48.054;10.636;2022-08-19T16:29:32;9.43;;;7.65;;
37203;SDS011;23098;48.054;10.636;2022-08-19T16:32:00;9.50;;;7.70;;
37203;SDS011;23098;48.054;10.636;2022-08-19T16:34:27;9.20;;;6.97;;
37203;SDS011;23098;48.054;10.636;2022-08-19T16:36:56;14.60;;;7.63;;
37203;SDS011;23098;48.054;10.636;2022-08-19T16:39:43;11.80;;;8.00;;
37203;SDS011;23098;48.054;10.636;2022-08-19T16:42:17;9.82;;;7.80;;
37203;SDS011;23098;48.054;10.636;2022-08-19T16:44:43;13.20;;;8.23;;
37203;SDS011;23098;48.054;10.636;2022-08-19T16:52:23;10.48;;;8.40;;
37203;SDS011;23098;48.054;10.636;2022-08-19T16:54:51;14.23;;;9.57;;
37203;SDS011;23098;48.054;10.636;2022-08-19T16:57:18;12.68;;;9.23;;
37203;SDS011;23098;48.054;10.636;2022-08-19T16:59:44;14.63;;;10.75;;
37203;SDS011;23098;48.054;10.636;2022-08-19T17:02:10;13.93;;;10.63;;
37203;SDS011;23098;48.054;10.636;2022-08-19T17:04:37;15.85;;;10.52;;
37203;SDS011;23098;48.054;10.636;2022-08-19T17:07:03;13.20;;;10.48;;
37203;SDS011;23098;48.054;10.636;2022-08-19T17:17:53;14.48;;;10.95;;
37203;SDS011;23098;48.054;10.636;2022-08-19T17:20:28;15.25;;;10.88;;
37203;SDS011;23098;48.054;10.636;2022-08-19T17:22:59;14.50;;;10.23;;
37203;SDS011;23098;48.054;10.636;2022-08-19T17:25:27;14.90;;;9.93;;
37203;SDS011;23098;48.054;10.636;2022-08-19T17:27:55;12.32;;;9.18;;
37203;SDS011;23098;48.054;10.636;2022-08-19T17:30:21;13.52;;;9.52;;
37203;SDS011;23098;48.054;10.636;2022-08-19T17:32:48;12.32;;;9.57;;
37203;SDS011;23098;48.054;10.636;2022-08-19T17:35:15;12.77;;;9.77;;
37203;SDS011;23098;48.054;10.636;2022-08-19T17:37:45;11.98;;;9.95;;
37203;SDS011;23098;48.054;10.636;2022-08-19T17:40:11;13.77;;;10.32;;
37203;SDS011;23098;48.054;10.636;2022-08-19T17:42:39;16.17;;;10.15;;
37203;SDS011;23098;48.054;10.636;2022-08-19T17:45:06;13.15;;;9.90;;
37203;SDS011;23098;48.054;10.636;2022-08-19T17:47:33;12.55;;;9.65;;
37203;SDS011;23098;48.054;10.636;2022-08-19T17:50:00;12.48;;;9.80;;
37203;SDS011;23098;48.054;10.636;2022-08-19T17:52:26;13.05;;;9.40;;
37203;SDS011;23098;48.054;10.636;2022-08-19T17:54:51;14.73;;;9.40;;
37203;SDS011;23098;48.054;10.636;2022-08-19T17:57:17;15.02;;;10.13;;
37203;SDS011;23098;48.054;10.636;2022-08-19T17:59:43;13.18;;;10.10;;
37203;SDS011;23098;48.054;10.636;2022-08-19T18:02:09;20.23;;;10.95;;
37203;SDS011;23098;48.054;10.636;2022-08-19T18:04:36;16.52;;;12.05;;
37203;SDS011;23098;48.054;10.636;2022-08-19T18:07:02;18.70;;;11.27;;
37203;SDS011;23098;48.054;10.636;2022-08-19T18:09:32;14.18;;;10.48;;
37203;SDS011;23098;48.054;10.636;2022-08-19T18:12:00;14.13;;;9.75;;
37203;SDS011;23098;48.054;10.636;2022-08-19T18:14:29;15.18;;;9.90;;
37203;SDS011;23098;48.054;10.636;2022-08-19T18:19:25;17.77;;;11.60;;
37203;SDS011;23098;48.054;10.636;2022-08-19T18:21:51;21.38;;;13.25;;
37203;SDS011;23098;48.054;10.636;2022-08-19T18:24:20;19.10;;;12.75;;
37203;SDS011;23098;48.054;10.636;2022-08-19T18:34:20;19.55;;;13.45;;